createdAt,value
2023-03-19T00:00:33.171Z,3.24
2023-03-19T00:01:30.081Z,2.95
2023-03-19T00:02:33.184Z,3.23
2023-03-19T00:03:30.033Z,3.03
2023-03-19T00:04:27.785Z,2.80
2023-03-19T00:05:24.536Z,2.39
2023-03-19T00:06:28.069Z,2.51
2023-03-19T00:07:31.151Z,2.38
2023-03-19T00:08:28.110Z,2.76
2023-03-19T00:09:24.973Z,2.24
2023-03-19T00:10:21.828Z,3.17
2023-03-19T00:11:18.791Z,2.16
2023-03-19T00:12:16.265Z,3.24
2023-03-19T00:13:19.170Z,3.26
2023-03-19T00:14:24.177Z,2.71
2023-03-19T00:15:20.970Z,2.98
2023-03-19T00:16:24.153Z,2.89
2023-03-19T00:17:21.046Z,3.28
2023-03-19T00:18:18.041Z,3.72
2023-03-19T00:19:15.811Z,4.35
2023-03-19T00:20:21.147Z,4.44
2023-03-19T00:21:18.040Z,3.74
2023-03-19T00:22:21.101Z,3.42
2023-03-19T00:23:18.030Z,3.07
2023-03-19T00:24:16.256Z,2.82
2023-03-19T00:25:19.312Z,3.12
2023-03-19T00:26:29.219Z,3.31
2023-03-19T00:27:26.311Z,2.98
2023-03-19T00:28:29.173Z,3.15
2023-03-19T00:29:26.184Z,2.21
2023-03-19T00:30:24.323Z,2.72
2023-03-19T00:31:21.544Z,2.76
2023-03-19T00:32:25.230Z,2.79
2023-03-19T00:33:21.993Z,2.50
2023-03-19T00:34:19.269Z,2.36
2023-03-19T00:35:16.315Z,2.89
2023-03-19T00:36:20.173Z,2.75
2023-03-19T00:37:17.509Z,3.42
2023-03-19T00:38:14.803Z,3.01
2023-03-19T00:39:11.646Z,3.26
2023-03-19T00:40:17.179Z,2.66
2023-03-19T00:41:14.017Z,3.07
2023-03-19T00:42:17.164Z,2.68
2023-03-19T00:43:20.145Z,2.61
2023-03-19T00:44:19.091Z,2.72
2023-03-19T00:45:16.569Z,3.51
2023-03-19T00:46:14.708Z,4.30
2023-03-19T00:47:19.154Z,4.24
2023-03-19T00:48:15.990Z,4.46
2023-03-19T00:49:13.314Z,4.77
2023-03-19T00:50:17.249Z,3.91
2023-03-19T00:51:14.241Z,2.98
2023-03-19T00:52:11.154Z,3.10
2023-03-19T00:53:07.954Z,1.96
2023-03-19T00:54:04.871Z,3.25
2023-03-19T00:55:08.224Z,3.04
2023-03-19T00:56:06.608Z,3.21
2023-03-19T00:57:03.384Z,3.07
2023-03-19T00:58:07.203Z,3.06
2023-03-19T00:59:10.207Z,3.04
2023-03-19T01:00:08.751Z,2.95
2023-03-19T01:01:06.597Z,3.11
2023-03-19T01:02:11.171Z,2.38
2023-03-19T01:03:07.964Z,2.76
2023-03-19T01:04:04.937Z,2.66
2023-03-19T01:05:01.810Z,2.66
2023-03-19T01:05:59.370Z,2.71
2023-03-19T01:07:03.218Z,2.89
2023-03-19T01:08:07.120Z,3.03
2023-03-19T01:09:03.986Z,2.53
2023-03-19T01:10:00.964Z,2.82
2023-03-19T01:11:05.726Z,2.90
2023-03-19T01:12:11.226Z,3.23
2023-03-19T01:13:08.211Z,3.23
2023-03-19T01:14:05.061Z,3.78
2023-03-19T01:15:09.171Z,3.11
2023-03-19T01:16:13.130Z,2.98
2023-03-19T01:17:09.975Z,2.29
2023-03-19T01:18:15.266Z,2.76
2023-03-19T01:19:12.811Z,2.10
2023-03-19T01:20:13.973Z,3.10
2023-03-19T01:21:17.186Z,3.13
2023-03-19T01:22:16.198Z,4.04
2023-03-19T01:23:12.993Z,3.49
2023-03-19T01:24:17.258Z,2.64
2023-03-19T01:25:14.656Z,2.34
2023-03-19T01:26:25.209Z,2.82
2023-03-19T01:27:28.641Z,2.37
2023-03-19T01:28:25.509Z,2.38
2023-03-19T01:29:29.202Z,1.43
2023-03-19T01:30:32.462Z,3.31
2023-03-19T01:31:29.533Z,3.20
2023-03-19T01:32:26.717Z,1.59
2023-03-19T01:33:25.603Z,3.03
2023-03-19T01:34:23.154Z,2.39
2023-03-19T01:35:27.207Z,3.05
2023-03-19T01:36:24.754Z,3.58
2023-03-19T01:37:21.676Z,3.32
2023-03-19T01:38:18.699Z,3.33
2023-03-19T01:39:15.544Z,3.57
2023-03-19T01:40:21.257Z,2.76
2023-03-19T01:41:18.443Z,2.62
2023-03-19T01:42:15.762Z,1.50
2023-03-19T01:43:15.153Z,2.48
2023-03-19T01:44:40.311Z,1.76
2023-03-19T01:45:40.193Z,2.80
2023-03-19T01:46:39.592Z,2.71
2023-03-19T01:47:41.603Z,2.64
2023-03-19T01:48:46.119Z,2.78
2023-03-19T01:49:53.290Z,1.89
2023-03-19T01:50:53.903Z,2.33
2023-03-19T01:51:53.830Z,2.15
2023-03-19T01:53:18.325Z,2.90
2023-03-19T01:54:22.792Z,3.52
2023-03-19T01:55:26.294Z,3.55
2023-03-19T01:56:30.662Z,3.78
2023-03-19T01:57:29.983Z,3.21
2023-03-19T01:58:27.857Z,2.98
2023-03-19T01:59:33.475Z,3.29
2023-03-19T02:00:37.210Z,2.82
2023-03-19T02:01:40.588Z,2.06
2023-03-19T02:02:40.654Z,2.85
2023-03-19T02:03:38.832Z,2.67
2023-03-19T02:04:39.191Z,2.89
2023-03-19T02:05:46.322Z,3.10
2023-03-19T02:06:44.906Z,2.63
2023-03-19T02:07:46.143Z,2.13
2023-03-19T02:08:43.851Z,2.10
2023-03-19T02:09:42.185Z,1.68
2023-03-19T02:10:47.273Z,2.12
2023-03-19T02:11:45.530Z,1.90
2023-03-19T02:12:42.466Z,2.44
2023-03-19T02:13:39.477Z,1.83
2023-03-19T02:14:43.291Z,1.63
2023-03-19T02:15:40.615Z,2.54
2023-03-19T02:16:44.285Z,2.05
2023-03-19T02:17:42.671Z,2.26
2023-03-19T02:18:39.449Z,1.37
2023-03-19T02:19:49.580Z,2.17
2023-03-19T02:21:05.259Z,1.06
2023-03-19T02:22:11.288Z,1.87
2023-03-19T02:23:13.735Z,2.67
2023-03-19T02:24:23.095Z,2.58
2023-03-19T02:25:37.272Z,2.35
2023-03-19T02:26:50.276Z,1.98
2023-03-19T02:27:53.619Z,2.63
2023-03-19T02:28:52.529Z,2.28
2023-03-19T02:29:56.288Z,1.54
2023-03-19T02:30:53.287Z,1.99
2023-03-19T02:31:56.249Z,1.96
2023-03-19T02:33:00.349Z,2.19
2023-03-19T02:34:28.701Z,2.60
2023-03-19T02:35:30.382Z,2.60
2023-03-19T02:36:49.376Z,1.22
2023-03-19T02:37:47.124Z,2.89
2023-03-19T02:38:46.742Z,3.42
2023-03-19T02:40:13.719Z,3.70
2023-03-19T02:41:18.449Z,3.40
2023-03-19T02:42:17.360Z,2.75
2023-03-19T02:43:14.390Z,3.35
2023-03-19T02:44:19.319Z,3.00
2023-03-19T02:45:17.065Z,1.82
2023-03-19T02:46:20.320Z,1.84
2023-03-19T02:47:17.402Z,1.30
2023-03-19T02:48:14.376Z,2.05
2023-03-19T02:49:18.344Z,2.13
2023-03-19T02:50:15.395Z,2.11
2023-03-19T02:51:13.601Z,2.18
2023-03-19T02:52:10.748Z,1.90
2023-03-19T02:53:08.219Z,1.44
2023-03-19T02:54:05.997Z,1.65
2023-03-19T02:55:10.368Z,2.24
2023-03-19T02:56:07.505Z,2.04
2023-03-19T02:57:05.603Z,2.35
2023-03-19T02:58:02.702Z,1.58
2023-03-19T02:58:59.596Z,2.66
2023-03-19T03:00:03.347Z,2.42
2023-03-19T03:01:00.222Z,2.53
2023-03-19T03:01:57.385Z,2.68
2023-03-19T03:02:57.432Z,2.11
2023-03-19T03:04:00.411Z,2.10
2023-03-19T03:04:57.187Z,2.02
2023-03-19T03:05:53.966Z,2.24
2023-03-19T03:06:50.780Z,1.94
2023-03-19T03:07:47.831Z,2.75
2023-03-19T03:08:44.721Z,2.15
2023-03-19T03:09:48.354Z,2.39
2023-03-19T03:10:51.364Z,2.29
2023-03-19T03:11:48.534Z,2.23
2023-03-19T03:12:53.323Z,1.93
2023-03-19T03:13:50.180Z,2.26
2023-03-19T03:14:46.929Z,3.16
2023-03-19T03:15:50.354Z,3.11
2023-03-19T03:16:47.262Z,3.53
2023-03-19T03:17:45.949Z,2.85
2023-03-19T03:18:42.816Z,2.73
2023-03-19T03:19:39.630Z,2.88
2023-03-19T03:20:43.379Z,2.23
2023-03-19T03:21:41.258Z,1.38
2023-03-19T03:22:39.407Z,1.84
2023-03-19T03:23:36.771Z,2.11
2023-03-19T03:24:33.915Z,1.99
2023-03-19T03:25:51.460Z,1.95
2023-03-19T03:26:48.358Z,2.11
2023-03-19T03:27:45.241Z,1.95
2023-03-19T03:28:42.044Z,2.21
2023-03-19T03:29:38.858Z,1.71
2023-03-19T03:30:36.453Z,2.07
2023-03-19T03:31:43.461Z,2.26
2023-03-19T03:32:40.299Z,1.47
2023-03-19T03:33:37.608Z,2.00
2023-03-19T03:34:34.949Z,2.12
2023-03-19T03:35:38.446Z,2.04
2023-03-19T03:36:42.381Z,2.19
2023-03-19T03:37:39.850Z,1.87
2023-03-19T03:38:36.797Z,2.18
2023-03-19T03:39:33.945Z,2.16
2023-03-19T03:40:37.435Z,1.97
2023-03-19T03:41:40.424Z,1.90
2023-03-19T03:42:37.602Z,1.87
2023-03-19T03:43:34.974Z,2.46
2023-03-19T03:44:31.910Z,1.96
2023-03-19T03:45:28.753Z,2.07
2023-03-19T03:46:32.394Z,2.21
2023-03-19T03:47:29.218Z,2.18
2023-03-19T03:48:26.125Z,2.11
2023-03-19T03:49:23.218Z,2.11
2023-03-19T03:50:26.395Z,2.26
2023-03-19T03:51:23.314Z,1.06
2023-03-19T03:52:20.129Z,2.29
2023-03-19T03:53:17.082Z,2.13
2023-03-19T03:54:13.886Z,1.48
2023-03-19T03:55:10.740Z,2.28
2023-03-19T03:56:14.429Z,1.57
2023-03-19T03:57:12.331Z,2.41
2023-03-19T03:58:09.467Z,2.83
2023-03-19T03:59:06.278Z,1.85
2023-03-19T04:00:04.005Z,2.54
2023-03-19T04:01:07.400Z,2.90
2023-03-19T04:02:04.171Z,3.27
2023-03-19T04:03:01.228Z,3.45
2023-03-19T04:03:58.055Z,2.67
2023-03-19T04:04:56.197Z,3.18
2023-03-19T04:05:59.478Z,2.79
2023-03-19T04:06:56.619Z,2.99
2023-03-19T04:07:53.712Z,2.63
2023-03-19T04:08:51.091Z,2.11
2023-03-19T04:09:48.045Z,1.90
2023-03-19T04:10:51.504Z,2.38
2023-03-19T04:11:51.345Z,2.67
2023-03-19T04:12:55.530Z,2.49
2023-03-19T04:13:55.288Z,2.45
2023-03-19T04:14:52.172Z,2.22
2023-03-19T04:15:49.033Z,1.66
2023-03-19T04:16:45.888Z,1.34
2023-03-19T04:17:49.396Z,2.66
2023-03-19T04:18:46.265Z,1.96
2023-03-19T04:19:44.129Z,1.82
2023-03-19T04:20:41.461Z,1.45
2023-03-19T04:21:38.274Z,2.04
2023-03-19T04:22:41.497Z,1.72
2023-03-19T04:23:41.912Z,2.66
2023-03-19T04:24:45.467Z,2.84
2023-03-19T04:25:48.551Z,2.62
2023-03-19T04:26:53.381Z,3.17
2023-03-19T04:27:50.209Z,3.22
2023-03-19T04:28:47.145Z,2.98
2023-03-19T04:29:43.947Z,2.60
2023-03-19T04:30:47.504Z,2.20
2023-03-19T04:31:45.494Z,2.47
2023-03-19T04:32:50.556Z,2.55
2023-03-19T04:33:47.766Z,2.76
2023-03-19T04:34:44.581Z,1.77
2023-03-19T04:35:41.605Z,2.48
2023-03-19T04:36:38.936Z,2.10
2023-03-19T04:37:42.512Z,1.34
2023-03-19T04:38:39.327Z,1.73
2023-03-19T04:39:36.958Z,1.49
2023-03-19T04:40:40.503Z,1.77
2023-03-19T04:41:37.674Z,1.58
2023-03-19T04:42:34.535Z,1.76
2023-03-19T04:43:31.622Z,1.67
2023-03-19T04:44:28.575Z,1.58
2023-03-19T04:45:25.905Z,0.73
2023-03-19T04:46:29.508Z,1.67
2023-03-19T04:47:26.599Z,1.63
2023-03-19T04:48:23.983Z,1.78
2023-03-19T04:49:20.947Z,1.89
2023-03-19T04:50:18.153Z,1.97
2023-03-19T04:51:15.093Z,1.84
2023-03-19T04:52:18.490Z,1.39
2023-03-19T04:53:15.960Z,1.54
2023-03-19T04:54:12.814Z,2.13
2023-03-19T04:55:10.253Z,2.83
2023-03-19T04:56:08.036Z,1.91
2023-03-19T04:57:11.479Z,3.06
2023-03-19T04:58:09.278Z,2.60
2023-03-19T04:59:06.764Z,3.01
2023-03-19T05:00:10.488Z,3.08
2023-03-19T05:01:07.362Z,3.19
2023-03-19T05:02:04.491Z,2.72
2023-03-19T05:03:01.309Z,2.38
2023-03-19T05:04:04.621Z,1.88
2023-03-19T05:05:01.508Z,1.22
2023-03-19T05:05:58.326Z,1.70
2023-03-19T05:06:55.292Z,2.07
2023-03-19T05:07:52.491Z,1.55
2023-03-19T05:08:49.481Z,2.17
2023-03-19T05:09:54.550Z,1.95
2023-03-19T05:10:51.367Z,2.49
2023-03-19T05:11:54.539Z,3.18
2023-03-19T05:12:57.630Z,2.63
2023-03-19T05:13:54.489Z,2.28
2023-03-19T05:14:51.314Z,2.15
2023-03-19T05:15:48.548Z,2.36
2023-03-19T05:16:45.445Z,2.25
2023-03-19T05:17:43.046Z,2.12
2023-03-19T05:18:46.528Z,1.67
2023-03-19T05:19:43.656Z,2.16
2023-03-19T05:20:42.618Z,2.24
2023-03-19T05:21:47.541Z,2.43
2023-03-19T05:22:44.495Z,2.03
2023-03-19T05:23:41.429Z,1.44
2023-03-19T05:24:38.538Z,2.55
2023-03-19T05:25:35.516Z,2.91
2023-03-19T05:26:46.662Z,3.10
2023-03-19T05:27:56.700Z,0.90
2023-03-19T05:28:53.623Z,1.33
2023-03-19T05:29:55.819Z,2.02
2023-03-19T05:30:53.029Z,3.23
2023-03-19T05:32:13.775Z,2.96
2023-03-19T05:33:17.642Z,2.13
2023-03-19T05:34:17.416Z,3.63
2023-03-19T05:35:14.562Z,4.48
2023-03-19T05:36:12.518Z,4.82
2023-03-19T05:37:19.308Z,4.31
2023-03-19T05:38:18.822Z,4.95
2023-03-19T05:39:18.110Z,4.34
2023-03-19T05:40:18.805Z,4.67
2023-03-19T05:41:25.525Z,4.45
2023-03-19T05:42:22.412Z,4.94
2023-03-19T05:43:21.342Z,4.77
2023-03-19T05:44:18.865Z,3.47
2023-03-19T05:45:24.573Z,4.21
2023-03-19T05:46:23.888Z,3.41
2023-03-19T05:47:21.508Z,4.30
2023-03-19T05:48:21.298Z,3.74
2023-03-19T05:49:24.614Z,3.68
2023-03-19T05:50:21.987Z,4.00
2023-03-19T05:51:18.971Z,4.49
2023-03-19T05:52:18.499Z,4.23
2023-03-19T05:53:22.553Z,2.86
2023-03-19T05:54:19.810Z,4.31
2023-03-19T05:55:20.324Z,4.15
2023-03-19T05:56:17.333Z,4.54
2023-03-19T05:57:16.563Z,4.78
2023-03-19T05:58:21.358Z,4.77
2023-03-19T05:59:24.032Z,4.62
2023-03-19T06:00:23.827Z,4.82
2023-03-19T06:01:27.933Z,4.39
2023-03-19T06:02:24.978Z,4.44
2023-03-19T06:03:33.614Z,5.34
2023-03-19T06:04:30.475Z,5.31
2023-03-19T06:05:29.252Z,4.17
2023-03-19T06:06:27.112Z,5.11
2023-03-19T06:07:23.970Z,5.23
2023-03-19T06:08:21.616Z,4.41
2023-03-19T06:09:26.615Z,4.12
2023-03-19T06:10:23.490Z,4.26
2023-03-19T06:11:20.404Z,3.84
2023-03-19T06:12:22.369Z,3.98
2023-03-19T06:13:25.558Z,5.13
2023-03-19T06:14:28.563Z,4.92
2023-03-19T06:15:25.385Z,4.51
2023-03-19T06:16:22.253Z,4.84
2023-03-19T06:17:22.329Z,4.69
2023-03-19T06:18:30.690Z,4.55
2023-03-19T06:19:30.220Z,4.44
2023-03-19T06:20:33.768Z,4.65
2023-03-19T06:21:33.342Z,4.67
2023-03-19T06:22:30.141Z,4.34
2023-03-19T06:23:33.556Z,3.48
2023-03-19T06:24:32.720Z,4.61
2023-03-19T06:25:29.510Z,5.25
2023-03-19T06:26:33.647Z,5.19
2023-03-19T06:27:37.876Z,4.80
2023-03-19T06:28:34.603Z,4.80
2023-03-19T06:29:38.691Z,4.64
2023-03-19T06:30:36.222Z,4.79
2023-03-19T06:31:47.401Z,4.37
2023-03-19T06:32:44.371Z,4.52
2023-03-19T06:33:41.743Z,4.00
2023-03-19T06:34:45.672Z,4.68
2023-03-19T06:35:42.431Z,4.64
2023-03-19T06:36:39.202Z,4.24
2023-03-19T06:37:36.649Z,3.53
2023-03-19T06:38:39.653Z,3.58
2023-03-19T06:39:36.808Z,3.84
2023-03-19T06:40:36.799Z,2.19
2023-03-19T06:41:37.259Z,3.88
2023-03-19T06:42:37.400Z,4.30
2023-03-19T06:43:37.332Z,3.31
2023-03-19T06:44:40.646Z,3.74
2023-03-19T06:45:43.717Z,4.05
2023-03-19T06:46:43.521Z,4.15
2023-03-19T06:47:41.999Z,3.81
2023-03-19T06:48:39.383Z,4.31
2023-03-19T06:49:36.396Z,4.18
2023-03-19T06:50:39.649Z,4.42
2023-03-19T06:51:36.831Z,3.77
2023-03-19T06:52:33.646Z,2.67
2023-03-19T06:53:30.516Z,4.03
2023-03-19T06:54:33.654Z,3.81
2023-03-19T06:55:31.159Z,4.53
2023-03-19T06:56:29.433Z,4.43
2023-03-19T06:57:26.236Z,3.95
2023-03-19T06:58:29.623Z,4.45
2023-03-19T06:59:26.687Z,4.96
2023-03-19T07:00:30.689Z,5.02
2023-03-19T07:01:27.801Z,5.15
2023-03-19T07:02:24.779Z,4.71
2023-03-19T07:03:28.645Z,4.58
2023-03-19T07:04:25.550Z,4.57
2023-03-19T07:05:22.492Z,4.03
2023-03-19T07:06:19.361Z,4.46
2023-03-19T07:07:16.481Z,4.81
2023-03-19T07:08:13.267Z,4.95
2023-03-19T07:09:16.692Z,5.31
2023-03-19T07:10:13.864Z,3.67
2023-03-19T07:11:12.311Z,4.50
2023-03-19T07:12:10.560Z,4.26
2023-03-19T07:13:13.678Z,4.04
2023-03-19T07:14:17.683Z,4.38
2023-03-19T07:15:15.213Z,4.16
2023-03-19T07:16:12.166Z,4.56
2023-03-19T07:17:10.367Z,4.82
2023-03-19T07:18:07.340Z,4.69
2023-03-19T07:19:10.698Z,4.60
2023-03-19T07:20:08.318Z,2.95
2023-03-19T07:21:11.650Z,4.92
2023-03-19T07:22:08.534Z,5.64
2023-03-19T07:23:05.317Z,5.50
2023-03-19T07:24:02.143Z,5.86
2023-03-19T07:25:05.654Z,4.55
2023-03-19T07:26:08.689Z,4.82
2023-03-19T07:27:18.857Z,5.24
2023-03-19T07:28:15.910Z,5.77
2023-03-19T07:29:12.660Z,6.16
2023-03-19T07:30:16.698Z,6.22
2023-03-19T07:31:19.739Z,5.36
2023-03-19T07:32:16.587Z,5.41
2023-03-19T07:33:13.512Z,6.08
2023-03-19T07:34:10.511Z,5.60
2023-03-19T07:35:09.503Z,5.95
2023-03-19T07:36:13.727Z,5.67
2023-03-19T07:37:10.753Z,5.96
2023-03-19T07:38:07.454Z,6.36
2023-03-19T07:39:04.375Z,4.89
2023-03-19T07:40:01.204Z,5.57
2023-03-19T07:41:02.279Z,5.86
2023-03-19T07:42:07.117Z,6.05
2023-03-19T07:43:04.343Z,4.43
2023-03-19T07:44:03.960Z,5.32
2023-03-19T07:45:02.350Z,5.88
2023-03-19T07:46:06.851Z,5.31
2023-03-19T07:47:22.501Z,5.40
2023-03-19T07:48:25.065Z,6.34
2023-03-19T07:49:36.636Z,5.86
2023-03-19T07:50:34.388Z,5.89
2023-03-19T07:51:38.736Z,5.34
2023-03-19T07:52:41.773Z,6.12
2023-03-19T07:53:38.586Z,5.81
2023-03-19T07:54:35.819Z,6.82
2023-03-19T07:55:32.555Z,6.24
2023-03-19T07:56:29.491Z,6.96
2023-03-19T07:57:32.701Z,7.41
2023-03-19T07:58:29.623Z,7.34
2023-03-19T07:59:26.541Z,7.32
2023-03-19T08:00:23.514Z,6.60
2023-03-19T08:01:26.862Z,6.32
2023-03-19T08:02:23.875Z,7.06
2023-03-19T08:03:29.753Z,6.89
2023-03-19T08:04:27.266Z,7.60
2023-03-19T08:05:30.754Z,7.47
2023-03-19T08:06:28.011Z,7.97
2023-03-19T08:07:25.474Z,8.36
2023-03-19T08:08:22.666Z,7.66
2023-03-19T08:09:19.539Z,6.52
2023-03-19T08:10:22.805Z,7.67
2023-03-19T08:11:19.837Z,7.33
2023-03-19T08:12:16.765Z,7.66
2023-03-19T08:13:20.794Z,7.69
2023-03-19T08:14:22.421Z,7.12
2023-03-19T08:15:25.748Z,7.83
2023-03-19T08:16:22.727Z,8.14
2023-03-19T08:17:19.774Z,7.64
2023-03-19T08:18:23.811Z,7.11
2023-03-19T08:19:20.601Z,7.71
2023-03-19T08:20:23.730Z,7.60
2023-03-19T08:21:21.028Z,7.39
2023-03-19T08:22:17.811Z,7.03
2023-03-19T08:23:15.837Z,6.84
2023-03-19T08:24:18.711Z,7.13
2023-03-19T08:25:15.769Z,7.71
2023-03-19T08:26:18.786Z,8.06
2023-03-19T08:27:22.200Z,7.98
2023-03-19T08:28:24.136Z,8.14
2023-03-19T08:29:21.078Z,8.03
2023-03-19T08:30:18.552Z,7.24
2023-03-19T08:31:23.740Z,7.42
2023-03-19T08:32:20.806Z,6.78
2023-03-19T08:33:17.572Z,7.49
2023-03-19T08:34:14.458Z,8.26
2023-03-19T08:35:13.378Z,7.72
2023-03-19T08:36:21.746Z,8.48
2023-03-19T08:37:19.367Z,8.83
2023-03-19T08:38:21.753Z,8.13
2023-03-19T08:39:25.713Z,8.83
2023-03-19T08:40:30.236Z,8.17
2023-03-19T08:41:27.329Z,8.26
2023-03-19T08:42:24.243Z,7.88
2023-03-19T08:43:21.080Z,7.72
2023-03-19T08:44:17.987Z,8.44
2023-03-19T08:45:16.612Z,8.38
2023-03-19T08:46:21.046Z,8.09
2023-03-19T08:47:18.102Z,8.54
2023-03-19T08:48:14.941Z,8.07
2023-03-19T08:49:11.883Z,7.21
2023-03-19T08:50:10.268Z,8.87
2023-03-19T08:51:13.750Z,9.19
2023-03-19T08:52:10.731Z,8.98
2023-03-19T08:53:07.663Z,8.93
2023-03-19T08:54:10.802Z,8.82
2023-03-19T08:55:09.405Z,9.17
2023-03-19T08:56:43.073Z,9.00
2023-03-19T08:57:39.933Z,9.14
2023-03-19T08:58:36.795Z,9.22
2023-03-19T08:59:39.809Z,9.11
2023-03-19T09:00:36.804Z,9.30
2023-03-19T09:01:33.760Z,9.39
2023-03-19T09:02:30.937Z,9.34
2023-03-19T09:03:27.947Z,9.45
2023-03-19T09:04:42.867Z,9.34
2023-03-19T09:05:39.746Z,8.98
2023-03-19T09:06:43.558Z,9.00
2023-03-19T09:07:40.720Z,9.17
2023-03-19T09:08:38.466Z,8.62
2023-03-19T09:09:35.532Z,8.48
2023-03-19T09:10:33.273Z,8.51
2023-03-19T09:11:30.500Z,9.24
2023-03-19T09:12:33.852Z,9.39
2023-03-19T09:13:30.693Z,9.37
2023-03-19T09:14:27.911Z,9.39
2023-03-19T09:15:25.056Z,9.29
2023-03-19T09:16:22.057Z,9.47
2023-03-19T09:17:25.805Z,9.32
2023-03-19T09:18:27.331Z,8.91
2023-03-19T09:19:24.160Z,9.25
2023-03-19T09:20:21.175Z,9.45
2023-03-19T09:21:24.872Z,9.64
2023-03-19T09:22:21.793Z,9.99
2023-03-19T09:23:18.890Z,9.75
2023-03-19T09:24:16.116Z,9.72
2023-03-19T09:25:13.005Z,10.00
2023-03-19T09:26:09.885Z,9.73
2023-03-19T09:27:19.812Z,9.81
2023-03-19T09:28:23.569Z,9.78
2023-03-19T09:29:20.721Z,8.83
2023-03-19T09:30:17.576Z,10.10
2023-03-19T09:31:20.909Z,10.38
2023-03-19T09:32:27.918Z,9.86
2023-03-19T09:33:24.772Z,9.62
2023-03-19T09:34:21.720Z,10.82
2023-03-19T09:35:21.460Z,10.00
2023-03-19T09:36:21.002Z,9.77
2023-03-19T09:37:20.411Z,10.59
2023-03-19T09:38:23.888Z,10.16
2023-03-19T09:39:25.859Z,9.95
2023-03-19T09:40:34.351Z,9.61
2023-03-19T09:41:31.763Z,10.55
2023-03-19T09:42:56.857Z,10.19
2023-03-19T09:44:00.059Z,10.85
2023-03-19T09:44:57.022Z,10.38
2023-03-19T09:45:54.525Z,9.88
2023-03-19T09:46:59.804Z,10.14
2023-03-19T09:48:15.250Z,10.10
2023-03-19T09:49:30.027Z,10.42
2023-03-19T09:50:32.433Z,10.55
2023-03-19T09:51:45.010Z,10.14
2023-03-19T09:52:55.946Z,10.06
2023-03-19T09:54:15.667Z,10.30
2023-03-19T09:55:32.954Z,10.74
2023-03-19T09:56:33.100Z,10.70
2023-03-19T09:57:30.113Z,10.91
2023-03-19T09:58:34.134Z,10.70
2023-03-19T09:59:37.912Z,10.01
2023-03-19T10:00:38.131Z,11.46
2023-03-19T10:01:39.917Z,11.26
2023-03-19T10:02:43.731Z,11.25
2023-03-19T10:04:26.504Z,10.55
2023-03-19T10:05:55.885Z,10.63
2023-03-19T10:07:24.086Z,11.45
2023-03-19T10:08:42.477Z,11.64
2023-03-19T10:09:54.726Z,11.47
2023-03-19T10:11:19.274Z,11.30
2023-03-19T10:12:45.652Z,11.12
2023-03-19T10:14:19.229Z,11.16
2023-03-19T10:15:26.023Z,11.21
2023-03-19T10:16:27.581Z,11.09
2023-03-19T10:17:59.992Z,11.61
2023-03-19T10:19:06.439Z,11.97
2023-03-19T10:20:15.989Z,11.10
2023-03-19T10:21:33.954Z,11.18
2023-03-19T10:22:40.205Z,11.14
2023-03-19T10:24:03.516Z,11.88
2023-03-19T10:25:09.898Z,11.78
2023-03-19T10:26:18.065Z,12.08
2023-03-19T10:27:26.138Z,12.08
2023-03-19T10:28:23.203Z,12.25
2023-03-19T10:29:24.319Z,12.30
2023-03-19T10:30:27.897Z,11.90
2023-03-19T10:31:33.595Z,12.07
2023-03-19T10:32:55.310Z,12.18
2023-03-19T10:34:38.060Z,12.52
2023-03-19T10:35:51.039Z,12.14
2023-03-19T10:36:47.946Z,11.79
2023-03-19T10:37:44.913Z,11.70
2023-03-19T10:38:43.589Z,11.74
2023-03-19T10:39:43.437Z,12.06
2023-03-19T10:41:00.040Z,12.28
2023-03-19T10:42:48.466Z,12.38
2023-03-19T10:43:54.592Z,11.82
2023-03-19T10:44:54.206Z,12.70
2023-03-19T10:45:58.110Z,11.80
2023-03-19T10:46:59.043Z,11.89
2023-03-19T10:47:58.045Z,12.67
2023-03-19T10:48:54.859Z,12.46
2023-03-19T10:49:51.880Z,13.02
2023-03-19T10:51:07.947Z,12.89
2023-03-19T10:52:13.970Z,12.68
2023-03-19T10:53:13.531Z,13.05
2023-03-19T10:54:21.887Z,12.63
2023-03-19T10:55:29.908Z,12.96
2023-03-19T10:56:36.994Z,12.95
2023-03-19T10:57:34.954Z,12.63
2023-03-19T10:58:43.338Z,12.58
2023-03-19T10:59:40.392Z,12.51
2023-03-19T11:00:40.252Z,12.55
2023-03-19T11:01:50.007Z,13.46
2023-03-19T11:02:50.791Z,13.43
2023-03-19T11:04:02.423Z,13.19
2023-03-19T11:05:26.909Z,13.34
2023-03-19T11:06:36.797Z,13.37
2023-03-19T11:07:41.981Z,13.12
2023-03-19T11:08:49.634Z,13.19
2023-03-19T11:09:55.362Z,12.15
2023-03-19T11:10:52.335Z,12.75
2023-03-19T11:12:02.530Z,13.06
2023-03-19T11:13:23.643Z,13.53
2023-03-19T11:14:36.664Z,13.53
2023-03-19T11:15:39.201Z,13.06
2023-03-19T11:17:04.947Z,13.80
2023-03-19T11:18:09.216Z,13.17
2023-03-19T11:19:24.212Z,12.49
2023-03-19T11:20:36.885Z,13.67
2023-03-19T11:21:43.046Z,12.56
2023-03-19T11:22:40.301Z,13.20
2023-03-19T11:23:49.046Z,13.65
2023-03-19T11:25:18.959Z,13.86
2023-03-19T11:26:21.691Z,13.95
2023-03-19T11:28:03.482Z,13.90
2023-03-19T11:29:12.144Z,13.70
2023-03-19T11:30:20.566Z,11.97
2023-03-19T11:32:20.487Z,13.56
2023-03-19T11:33:31.053Z,13.78
2023-03-19T11:35:03.020Z,13.93
2023-03-19T11:36:13.183Z,14.05
2023-03-19T11:37:33.936Z,13.98
2023-03-19T11:39:18.797Z,13.90
2023-03-19T11:40:24.655Z,14.34
2023-03-19T11:41:52.968Z,14.10
2023-03-19T11:43:15.039Z,14.20
2023-03-19T11:44:36.591Z,13.99
2023-03-19T11:46:09.155Z,13.65
2023-03-19T11:47:29.227Z,14.49
2023-03-19T11:48:56.109Z,14.12
2023-03-19T11:50:18.483Z,14.55
2023-03-19T11:51:22.715Z,14.32
2023-03-19T11:52:43.501Z,14.20
2023-03-19T11:54:06.243Z,14.64
2023-03-19T11:55:42.824Z,14.52
2023-03-19T11:56:55.678Z,14.79
2023-03-19T11:58:27.298Z,14.79
2023-03-19T11:59:36.040Z,14.70
2023-03-19T12:00:41.840Z,14.69
2023-03-19T12:02:16.230Z,14.89
2023-03-19T12:03:28.137Z,14.82
2023-03-19T12:04:32.106Z,14.71
2023-03-19T12:05:56.826Z,14.18
2023-03-19T12:07:14.196Z,14.23
2023-03-19T12:08:29.580Z,14.76
2023-03-19T12:09:51.032Z,14.73
2023-03-19T12:11:08.261Z,14.68
2023-03-19T12:12:26.636Z,15.02
2023-03-19T12:13:27.104Z,15.13
2023-03-19T12:14:57.037Z,15.21
2023-03-19T12:16:05.288Z,15.13
2023-03-19T12:17:31.641Z,14.96
2023-03-19T12:18:52.387Z,14.81
2023-03-19T12:20:29.072Z,15.03
2023-03-19T12:21:58.789Z,15.15
2023-03-19T12:23:04.738Z,15.02
2023-03-19T12:24:12.183Z,14.98
2023-03-19T12:25:25.138Z,15.13
2023-03-19T12:26:56.171Z,15.16
2023-03-19T12:28:06.236Z,15.08
2023-03-19T12:29:18.024Z,15.13
2023-03-19T12:30:39.066Z,15.02
2023-03-19T12:32:07.121Z,14.99
2023-03-19T12:33:16.222Z,15.22
2023-03-19T12:34:31.237Z,15.21
2023-03-19T12:35:35.415Z,15.32
2023-03-19T12:36:49.085Z,15.31
2023-03-19T12:38:48.521Z,15.25
2023-03-19T12:40:14.605Z,15.10
2023-03-19T12:41:28.003Z,15.04
2023-03-19T12:42:44.321Z,15.14
2023-03-19T12:43:53.537Z,15.02
2023-03-19T12:44:58.458Z,15.52
2023-03-19T12:46:13.259Z,15.16
2023-03-19T12:47:22.430Z,15.21
2023-03-19T12:48:42.310Z,15.49
2023-03-19T12:50:04.726Z,15.46
2023-03-19T12:51:10.431Z,14.10
2023-03-19T12:52:35.384Z,15.31
2023-03-19T12:54:26.051Z,15.60
2023-03-19T12:55:45.592Z,15.68
2023-03-19T12:56:44.888Z,15.50
2023-03-19T12:57:55.337Z,15.51
2023-03-19T12:59:29.999Z,15.21
2023-03-19T13:00:38.922Z,14.93
2023-03-19T13:01:52.310Z,15.40
2023-03-19T13:03:07.167Z,15.68
2023-03-19T13:04:39.477Z,15.51
2023-03-19T13:05:44.857Z,15.28
2023-03-19T13:07:15.227Z,15.48
2023-03-19T13:08:37.097Z,15.53
2023-03-19T13:09:39.255Z,15.76
2023-03-19T13:10:36.497Z,15.43
2023-03-19T13:11:55.205Z,15.60
2023-03-19T13:12:54.368Z,15.84
2023-03-19T13:13:51.147Z,16.00
2023-03-19T13:15:06.701Z,16.04
2023-03-19T13:16:15.808Z,16.10
2023-03-19T13:17:34.122Z,15.02
2023-03-19T13:18:59.983Z,16.18
2023-03-19T13:20:01.543Z,15.99
2023-03-19T13:21:33.555Z,16.17
2023-03-19T13:22:44.176Z,15.90
2023-03-19T13:23:45.661Z,15.26
2023-03-19T13:24:49.827Z,15.56
2023-03-19T13:25:49.402Z,16.06
2023-03-19T13:27:10.256Z,15.90
2023-03-19T13:28:11.755Z,15.56
2023-03-19T13:29:36.539Z,16.00
2023-03-19T13:30:33.739Z,16.16
2023-03-19T13:31:47.010Z,16.23
2023-03-19T13:32:58.205Z,16.16
2023-03-19T13:34:26.776Z,16.27
2023-03-19T13:35:37.128Z,15.71
2023-03-19T13:36:46.179Z,15.98
2023-03-19T13:37:59.207Z,15.14
2023-03-19T13:38:59.646Z,15.43
2023-03-19T13:39:59.059Z,16.16
2023-03-19T13:40:58.704Z,16.18
2023-03-19T13:42:18.332Z,15.71
2023-03-19T13:43:52.467Z,14.95
2023-03-19T13:44:57.258Z,16.05
2023-03-19T13:46:06.317Z,15.98
2023-03-19T13:47:33.175Z,16.37
2023-03-19T13:48:30.493Z,16.31
2023-03-19T13:49:59.377Z,15.81
2023-03-19T13:51:12.621Z,16.02
2023-03-19T13:52:20.275Z,15.62
2023-03-19T13:53:37.384Z,16.14
2023-03-19T13:54:42.869Z,16.45
2023-03-19T13:55:58.241Z,16.22
2023-03-19T13:57:06.463Z,16.48
2023-03-19T13:58:39.166Z,16.36
2023-03-19T13:59:39.313Z,16.46
2023-03-19T14:00:48.748Z,16.63
2023-03-19T14:01:54.235Z,16.45